Time;durP1;ratioP1;P1;durP2;ratioP2;P2;SDS_P1;SDS_P2;PMS_P1;PMS_P2;Temp;Humidity;BMP_temperature;BMP_pressure;BME280_temperature;BME280_humidity;BME280_pressure;Samples;Min_cycle;Max_cycle;Signal;HPM_P1;HPM_P2
2021/12/05 00:23:19;;;;;;;;;;;;;;;4.36;81.78;94598.06;5054722;28;1068;-51
2021/12/05 00:25:50;;;;;;;;;;;;;;;4.40;81.95;94607.41;5054532;28;1018;-51
2021/12/05 00:55:41;;;;;;;;;;;;;;;4.18;83.25;94589.13;5054067;28;1997;-51
2021/12/05 01:03:32;;;;;;;;;;;;;;;4.11;83.32;94579.06;5053951;28;1022;-51
2021/12/05 01:14:01;;;;;;;;;;;;;;;4.38;83.15;94576.75;5053754;28;1025;-51
2021/12/05 01:16:29;;;;;;;;;;;;;;;4.42;83.02;94568.41;5053638;28;1017;-51
2021/12/05 01:18:55;;;;;;;;;;;;;;;4.42;82.73;94555.19;5053650;28;1291;-51
2021/12/05 01:21:23;;;;;;;;;;;;;;;4.29;82.91;94557.25;5053129;28;1914;-51
2021/12/05 01:24:00;;;;;;;;;;;;;;;4.18;83.49;94552.91;5053510;28;989;-51
2021/12/05 01:26:43;;;;;;;;;;;;;;;4.23;83.70;94541.91;5053236;28;1053;-51
2021/12/05 01:34:37;;;;;;;;;;;;;;;4.22;84.03;94534.94;5053541;28;1034;-51
2021/12/05 01:39:52;;;;;;;;;;;;;;;4.26;83.55;94536.34;5053497;28;938;-51
2021/12/05 01:55:45;;;;;;;;;;;;;;;4.44;83.29;94542.63;5053133;28;978;-51
2021/12/05 01:58:22;;;;;;;;;;;;;;;4.22;83.83;94548.19;5052472;28;1707;-51
2021/12/05 02:31:07;;;;;;;;;;;;;;;3.86;83.86;94569.81;5052453;28;1890;-51
2021/12/05 02:41:42;;;;;;;;;;;;;;;3.89;84.02;94569.56;5051981;28;1914;-52
2021/12/05 02:46:44;;;;;;;;;;;;;;;3.92;83.75;94565.78;5052546;28;982;-51
2021/12/05 02:49:12;;;;;;;;;;;;;;;3.88;84.17;94567.03;5055186;28;2090;-51
2021/12/05 02:51:38;;;;;;;;;;;;;;;3.86;84.03;94572.44;5056642;28;1025;-51
2021/12/05 02:54:15;;;;;;;;;;;;;;;3.88;83.51;94567.88;5056107;28;1013;-51
2021/12/05 02:56:46;;;;;;;;;;;;;;;3.77;83.92;94560.03;5056420;28;970;-51
2021/12/05 03:01:49;;;;;;;;;;;;;;;3.78;83.53;94547.66;5056391;28;1914;-51
2021/12/05 03:04:15;;;;;;;;;;;;;;;3.61;83.57;94557.91;5056038;28;970;-51
2021/12/05 03:06:50;;;;;;;;;;;;;;;3.63;84.12;94555.97;5056357;28;953;-51
2021/12/05 03:09:17;;;;;;;;;;;;;;;3.71;84.05;94557.94;5056080;28;1064;-51
2021/12/05 03:11:43;;;;;;;;;;;;;;;3.64;84.32;94551.50;5055791;28;1057;-51
2021/12/05 03:14:09;;;;;;;;;;;;;;;3.69;83.59;94555.41;5055563;28;1104;-51
2021/12/05 03:16:36;;;;;;;;;;;;;;;3.54;82.81;94551.47;5056212;28;1048;-51
2021/12/05 03:19:03;;;;;;;;;;;;;;;3.44;82.74;94551.44;5055660;28;1229;-51
2021/12/05 03:21:30;;;;;;;;;;;;;;;3.49;82.81;94548.38;5055878;28;1917;-51
2021/12/05 03:23:56;;;;;;;;;;;;;;;3.62;82.99;94554.28;5055760;28;1177;-51
2021/12/05 03:26:24;;;;;;;;;;;;;;;3.62;82.90;94545.50;5055981;28;982;-51
2021/12/05 03:28:54;;;;;;;;;;;;;;;3.58;82.54;94546.75;5055482;28;1163;-51
2021/12/05 03:31:20;;;;;;;;;;;;;;;3.59;82.54;94554.56;5055654;28;1080;-51
2021/12/05 03:33:46;;;;;;;;;;;;;;;3.56;82.54;94549.53;5055475;28;978;-51
2021/12/05 03:36:13;;;;;;;;;;;;;;;3.62;81.72;94554.28;5055900;28;1064;-51
2021/12/05 03:38:40;;;;;;;;;;;;;;;3.50;82.00;94550.06;5055394;28;1044;-51
2021/12/05 03:41:06;;;;;;;;;;;;;;;3.60;82.68;94553.56;5055244;28;1906;-51
2021/12/05 03:43:32;;;;;;;;;;;;;;;3.59;83.10;94557.19;5055288;28;985;-51
2021/12/05 03:45:59;;;;;;;;;;;;;;;3.62;82.18;94550.81;5055326;28;1018;-51
2021/12/05 03:48:26;;;;;;;;;;;;;;;3.66;82.48;94561.00;5054915;28;1124;-51
2021/12/05 03:50:53;;;;;;;;;;;;;;;3.71;82.62;94548.19;5055620;28;983;-51
2021/12/05 03:53:20;;;;;;;;;;;;;;;3.70;82.97;94562.41;5055063;28;915;-51
2021/12/05 03:55:48;;;;;;;;;;;;;;;3.80;82.69;94564.25;5055429;28;1052;-51
2021/12/05 03:58:14;;;;;;;;;;;;;;;3.83;83.33;94569.25;5054376;28;1041;-51
2021/12/05 04:00:42;;;;;;;;;;;;;;;3.89;83.48;94569.56;5055049;28;1910;-51
2021/12/05 04:03:09;;;;;;;;;;;;;;;4.03;82.81;94564.84;5054968;28;993;-51
2021/12/05 04:05:37;;;;;;;;;;;;;;;4.05;82.58;94566.38;5055054;28;1017;-51
2021/12/05 04:08:07;;;;;;;;;;;;;;;4.12;82.89;94561.41;5054709;28;1201;-51
2021/12/05 04:10:35;;;;;;;;;;;;;;;4.11;83.05;94565.84;5054864;28;1060;-51
2021/12/05 04:13:01;;;;;;;;;;;;;;;4.01;83.60;94564.16;5055143;28;970;-51
2021/12/05 04:15:27;;;;;;;;;;;;;;;3.85;83.84;94567.28;5054902;28;1060;-51
2021/12/05 04:17:53;;;;;;;;;;;;;;;3.87;84.06;94571.50;5054895;28;1245;-51
2021/12/05 04:20:20;;;;;;;;;;;;;;;3.74;84.05;94568.25;5054349;28;1979;-51
2021/12/05 04:22:47;;;;;;;;;;;;;;;3.68;84.68;94568.75;5054500;28;1065;-51
2021/12/05 04:25:14;;;;;;;;;;;;;;;3.51;84.82;94554.41;5054667;28;1008;-51
2021/12/05 04:27:42;;;;;;;;;;;;;;;3.38;85.44;94556.38;5054474;28;1037;-51
2021/12/05 04:30:09;;;;;;;;;;;;;;;3.52;85.29;94554.25;5054103;28;1250;-51
2021/12/05 04:32:35;;;;;;;;;;;;;;;3.63;84.71;94566.53;5054373;28;1479;-51
2021/12/05 04:35:01;;;;;;;;;;;;;;;3.68;84.58;94563.47;5054283;28;1073;-51
2021/12/05 04:37:27;;;;;;;;;;;;;;;3.74;84.57;94575.31;5054854;28;989;-51
2021/12/05 04:39:53;;;;;;;;;;;;;;;3.57;84.28;94575.00;5054173;28;1910;-51
2021/12/05 04:42:19;;;;;;;;;;;;;;;3.51;84.88;94583.47;5054267;28;970;-51
2021/12/05 04:44:45;;;;;;;;;;;;;;;3.56;84.52;94581.25;5054023;28;961;-51
2021/12/05 04:47:12;;;;;;;;;;;;;;;3.57;84.50;94584.75;5054155;28;1046;-51
2021/12/05 04:49:40;;;;;;;;;;;;;;;3.57;85.15;94582.94;5053886;28;1103;-52
2021/12/05 04:52:06;;;;;;;;;;;;;;;3.51;85.23;94583.47;5054416;28;977;-51
2021/12/05 04:54:32;;;;;;;;;;;;;;;3.45;84.97;94590.13;5053995;28;1001;-52
2021/12/05 04:56:58;;;;;;;;;;;;;;;3.36;85.21;94596.19;5054478;28;1057;-51
2021/12/05 04:59:26;;;;;;;;;;;;;;;3.42;85.71;94603.59;5053467;28;1020;-51
2021/12/05 05:01:53;;;;;;;;;;;;;;;3.54;84.99;94598.22;5054290;28;1891;-51
2021/12/05 05:05:01;;;;;;;;;;;;;;;3.52;85.19;94596.53;5053774;28;982;-51
2021/12/05 05:07:14;;;;;;;;;;;;;;;3.63;84.44;94605.34;5045907;28;1618;-51
2021/12/05 05:09:41;;;;;;;;;;;;;;;3.64;84.12;94601.72;5053278;28;1104;-51
2021/12/05 05:12:07;;;;;;;;;;;;;;;3.59;84.17;94596.03;5052837;28;1033;-51
2021/12/05 05:14:33;;;;;;;;;;;;;;;3.44;84.77;94592.88;5053219;28;1053;-51
2021/12/05 05:16:59;;;;;;;;;;;;;;;3.41;84.80;94599.25;5053850;28;1096;-51
2021/12/05 05:19:30;;;;;;;;;;;;;;;3.50;85.00;94590.53;5052977;28;2002;-51
2021/12/05 05:22:09;;;;;;;;;;;;;;;3.51;84.59;94594.88;5053575;28;1913;-51
2021/12/05 05:49:16;;;;;;;;;;;;;;;3.93;84.04;94607.16;5053384;28;1033;-51
2021/12/05 05:51:42;;;;;;;;;;;;;;;4.02;84.01;94601.06;5053355;28;989;-51
2021/12/05 05:54:09;;;;;;;;;;;;;;;4.09;84.18;94611.94;5052741;28;1893;-51
2021/12/05 05:56:36;;;;;;;;;;;;;;;4.08;84.29;94611.09;5052693;28;973;-51
2021/12/05 05:59:27;;;;;;;;;;;;;;;4.14;84.21;94611.53;5052711;28;1034;-51
2021/12/05 06:04:15;;;;;;;;;;;;;;;4.16;84.40;94621.00;5052908;28;950;-51
2021/12/05 06:06:41;;;;;;;;;;;;;;;4.18;84.04;94619.06;5052884;28;983;-50
2021/12/05 06:09:08;;;;;;;;;;;;;;;4.16;84.27;94617.53;5052567;28;1203;-50
2021/12/05 06:11:35;;;;;;;;;;;;;;;4.23;84.09;94626.56;5052223;28;1959;-50
2021/12/05 06:14:01;;;;;;;;;;;;;;;4.27;84.14;94628.84;5052838;28;977;-50
2021/12/05 06:16:27;;;;;;;;;;;;;;;4.33;83.96;94631.91;5052613;28;1147;-50
2021/12/05 06:18:53;;;;;;;;;;;;;;;4.34;83.84;94630.94;5052668;28;1182;-51
2021/12/05 06:21:19;;;;;;;;;;;;;;;4.15;84.41;94632.53;5052215;28;1887;-51
2021/12/05 06:23:45;;;;;;;;;;;;;;;4.09;85.16;94647.16;5052284;28;1991;-51
2021/12/05 06:26:14;;;;;;;;;;;;;;;4.05;85.44;94655.50;5052077;28;1097;-50
2021/12/05 06:47:24;;;;;;;;;;;;;;;4.28;84.06;94661.41;5052468;28;973;-51
2021/12/05 06:49:50;;;;;;;;;;;;;;;4.28;84.03;94667.53;5052232;28;1036;-51
2021/12/05 06:52:17;;;;;;;;;;;;;;;4.37;84.22;94665.91;5052046;28;1080;-51
2021/12/05 06:54:44;;;;;;;;;;;;;;;4.34;84.17;94665.34;5052054;28;1048;-51
2021/12/05 06:57:11;;;;;;;;;;;;;;;4.37;84.36;94665.91;5052273;28;1037;-51
2021/12/05 06:59:39;;;;;;;;;;;;;;;4.42;83.69;94671.66;5052019;28;1042;-51
2021/12/05 07:02:09;;;;;;;;;;;;;;;4.53;83.58;94669.84;5052072;28;1918;-51
2021/12/05 07:07:26;;;;;;;;;;;;;;;4.47;84.32;94684.47;5051942;28;959;-51
2021/12/05 07:09:53;;;;;;;;;;;;;;;4.44;83.97;94690.88;5052174;28;1057;-50
2021/12/05 07:15:15;;;;;;;;;;;;;;;4.46;84.00;94686.28;5051918;28;1045;-51
2021/12/05 07:20:51;;;;;;;;;;;;;;;4.57;83.96;94692.44;5046968;28;1983;-51
2021/12/05 07:24:12;;;;;;;;;;;;;;;4.63;83.54;94692.72;5052113;28;989;-60
2021/12/05 07:26:14;;;;;;;;;;;;;;;4.65;84.06;94687.31;5044307;28;1554;-51
2021/12/05 07:42:25;;;;;;;;;;;;;;;4.79;82.35;94671.00;5054956;28;2011;-51
2021/12/05 07:44:51;;;;;;;;;;;;;;;4.84;82.45;94674.09;5055599;28;974;-52
2021/12/05 07:47:19;;;;;;;;;;;;;;;4.91;82.22;94681.47;5055169;28;1142;-52
2021/12/05 07:49:47;;;;;;;;;;;;;;;4.98;83.07;94667.53;5055167;28;1055;-52
2021/12/05 07:52:18;;;;;;;;;;;;;;;4.89;82.35;94669.22;5055248;28;973;-51
2021/12/05 07:54:49;;;;;;;;;;;;;;;4.79;82.07;94670.16;5055468;28;1005;-51
2021/12/05 07:57:20;;;;;;;;;;;;;;;4.76;82.23;94668.66;5055140;28;1005;-51
2021/12/05 08:16:11;;;;;;;;;;;;;;;5.03;82.32;94699.75;5054428;28;1188;-50
2021/12/05 08:18:38;;;;;;;;;;;;;;;4.99;81.93;94694.84;5054936;28;1179;-50
2021/12/05 08:21:06;;;;;;;;;;;;;;;5.02;82.56;94691.94;5054160;28;1985;-51
2021/12/05 08:23:32;;;;;;;;;;;;;;;5.20;81.80;94700.88;5054724;28;1052;-50
2021/12/05 08:26:08;;;;;;;;;;;;;;;5.37;81.25;94701.13;5054635;28;1001;-51
2021/12/05 08:31:15;;;;;;;;;;;;;;;5.22;81.23;94690.97;5054140;28;1193;-51
2021/12/05 09:23:22;;;;;;;;;;;;;;;5.81;81.72;94603.38;5053196;28;1902;-51
2021/12/05 09:25:37;;;;;;;;;;;;;;;5.82;81.93;94594.41;5053128;28;1475;-51
2021/12/05 10:11:13;;;;;;;;;;;;;;;6.34;80.76;94554.94;5044100;28;1444;-51
2021/12/05 10:14:01;;;;;;;;;;;;;;;6.35;81.20;94553.94;5052617;28;1195;-51
2021/12/05 10:16:57;;;;;;;;;;;;;;;6.44;80.44;94541.59;5052726;28;1056;-51
2021/12/05 10:38:51;;;;;;;;;;;;;;;9.39;67.84;94526.09;5052786;28;1045;-52
2021/12/05 10:43:58;;;;;;;;;;;;;;;15.91;48.96;94506.00;5052251;28;1081;-52
2021/12/05 10:46:25;;;;;;;;;;;;;;;15.45;49.87;94493.38;5052217;28;998;-52
2021/12/05 10:48:54;;;;;;;;;;;;;;;14.16;51.92;94479.78;5051377;28;1052;-50
2021/12/05 10:51:23;;;;;;;;;;;;;;;12.86;54.93;94494.47;5052275;28;1049;-50
2021/12/05 10:53:54;;;;;;;;;;;;;;;11.94;58.56;94500.44;5052441;28;974;-52
2021/12/05 10:56:20;;;;;;;;;;;;;;;11.66;59.46;94487.63;5052574;28;974;-52
2021/12/05 10:58:53;;;;;;;;;;;;;;;11.57;59.63;94484.22;5052639;28;1022;-52
2021/12/05 11:01:27;;;;;;;;;;;;;;;11.39;60.39;94479.22;5051854;28;1910;-52
2021/12/05 11:03:56;;;;;;;;;;;;;;;11.26;60.95;94463.78;5052035;28;1050;-52
2021/12/05 11:06:33;;;;;;;;;;;;;;;11.56;61.57;94458.47;5051921;28;1029;-51
2021/12/05 11:09:02;;;;;;;;;;;;;;;11.52;59.88;94460.66;5052853;28;1045;-49
2021/12/05 11:11:28;;;;;;;;;;;;;;;11.37;60.54;94457.16;5055632;28;1222;-51
2021/12/05 11:13:54;;;;;;;;;;;;;;;11.27;61.30;94446.72;5055911;28;1041;-51
2021/12/05 11:16:31;;;;;;;;;;;;;;;11.22;61.32;94442.94;5055696;28;982;-52
2021/12/05 11:18:57;;;;;;;;;;;;;;;11.01;62.11;94440.94;5055866;28;1186;-51
2021/12/05 11:21:24;;;;;;;;;;;;;;;10.84;62.78;94433.06;5055503;28;1981;-51
2021/12/05 11:24:22;;;;;;;;;;;;;;;10.77;63.44;94439.31;5055752;28;1029;-52
2021/12/05 11:27:21;;;;;;;;;;;;;;;10.45;63.38;94436.72;5032870;28;1259;-52
2021/12/05 11:29:54;;;;;;;;;;;;;;;10.43;63.89;94424.53;5032738;28;1232;-52
2021/12/05 11:32:26;;;;;;;;;;;;;;;10.35;64.05;94412.88;5055417;28;1291;-52
2021/12/05 11:34:53;;;;;;;;;;;;;;;10.42;65.14;94401.50;5055540;28;1476;-52
2021/12/05 11:37:19;;;;;;;;;;;;;;;10.18;65.73;94395.28;5055463;28;1041;-53
2021/12/05 11:39:47;;;;;;;;;;;;;;;10.20;66.30;94390.59;5055472;28;2032;-53
2021/12/05 11:42:21;;;;;;;;;;;;;;;10.14;65.42;94392.13;5055158;28;1906;-53
2021/12/05 11:44:52;;;;;;;;;;;;;;;10.28;65.08;94389.69;5055382;28;1018;-52
2021/12/05 11:47:19;;;;;;;;;;;;;;;10.32;65.51;94385.69;5055636;28;1048;-53
2021/12/05 11:49:45;;;;;;;;;;;;;;;10.60;65.17;94380.63;5055199;28;1016;-53
2021/12/05 11:52:13;;;;;;;;;;;;;;;10.65;65.26;94377.44;5055181;28;1004;-53
2021/12/05 11:54:45;;;;;;;;;;;;;;;10.50;65.51;94380.88;5055409;28;1041;-53
2021/12/05 11:57:16;;;;;;;;;;;;;;;10.53;65.67;94382.38;5055314;28;1009;-53
2021/12/05 11:59:45;;;;;;;;;;;;;;;10.50;66.75;94374.72;5055015;28;973;-53
2021/12/05 12:02:18;;;;;;;;;;;;;;;10.62;66.10;94370.56;5054910;28;1902;-53
2021/12/05 12:04:44;;;;;;;;;;;;;;;10.46;66.24;94366.22;5054727;28;1191;-53
2021/12/05 12:07:10;;;;;;;;;;;;;;;10.29;67.37;94356.63;5054919;28;1033;-52
2021/12/05 12:09:37;;;;;;;;;;;;;;;10.22;67.23;94364.53;5054729;28;928;-53
2021/12/05 12:12:04;;;;;;;;;;;;;;;10.29;66.19;94353.97;5054584;28;1088;-53
2021/12/05 12:14:30;;;;;;;;;;;;;;;10.21;68.09;94352.19;5054622;28;1029;-50
2021/12/05 12:16:58;;;;;;;;;;;;;;;10.20;67.29;94347.00;5055042;28;1906;-50
2021/12/05 12:19:24;;;;;;;;;;;;;;;10.20;66.72;94347.84;5053878;28;1233;-50
2021/12/05 12:21:56;;;;;;;;;;;;;;;10.15;67.53;94345.72;5054730;28;1961;-52
2021/12/05 12:24:23;;;;;;;;;;;;;;;10.28;67.07;94338.94;5054800;28;1064;-52
2021/12/05 12:26:49;;;;;;;;;;;;;;;10.22;67.39;94328.97;5054877;28;1033;-52
2021/12/05 12:32:42;;;;;;;;;;;;;;;10.43;66.86;94331.00;3480551;28;2225;-52
2021/12/05 12:35:10;;;;;;;;;;;;;;;10.45;66.35;94323.63;5054443;28;985;-50
2021/12/05 12:37:56;;;;;;;;;;;;;;;10.32;67.47;94330.44;5054451;28;1036;-51
2021/12/05 12:40:38;;;;;;;;;;;;;;;10.38;67.31;94328.03;5053905;28;1913;-51
2021/12/05 12:43:06;;;;;;;;;;;;;;;10.42;66.80;94326.69;5054148;28;988;-50
2021/12/05 12:45:40;;;;;;;;;;;;;;;10.35;66.87;94326.56;5054302;28;1041;-51
2021/12/05 12:48:15;;;;;;;;;;;;;;;10.32;67.74;94318.88;5054016;28;1045;-51
2021/12/05 12:50:51;;;;;;;;;;;;;;;10.23;67.27;94303.94;5054054;28;989;-52
2021/12/05 12:53:30;;;;;;;;;;;;;;;10.12;66.82;94307.84;5054061;28;985;-51
2021/12/05 12:55:58;;;;;;;;;;;;;;;10.03;67.15;94298.22;5054310;28;1049;-50
2021/12/05 12:58:36;;;;;;;;;;;;;;;10.07;67.40;94287.03;5054142;28;981;-51
2021/12/05 13:12:50;;;;;;;;;;;;;;;10.15;67.94;94264.75;5053708;28;978;-53
2021/12/05 13:15:34;;;;;;;;;;;;;;;10.19;69.05;94268.72;5053633;28;1093;-51
2021/12/05 13:18:10;;;;;;;;;;;;;;;10.11;68.18;94258.09;5053489;28;1229;-50
2021/12/05 13:20:52;;;;;;;;;;;;;;;10.07;68.06;94264.81;5053608;28;1991;-51
2021/12/05 13:23:18;;;;;;;;;;;;;;;9.97;68.51;94262.38;5053764;28;962;-51
2021/12/05 13:26:19;;;;;;;;;;;;;;;9.97;68.91;94262.38;5053414;28;978;-51
2021/12/05 13:28:45;;;;;;;;;;;;;;;9.97;68.73;94263.22;5030945;28;1260;-51
2021/12/05 13:31:32;;;;;;;;;;;;;;;9.99;69.12;94263.03;5053118;28;1135;-51
2021/12/05 13:34:17;;;;;;;;;;;;;;;10.01;68.98;94255.69;5052793;28;1098;-51
2021/12/05 13:36:45;;;;;;;;;;;;;;;10.01;66.04;94250.34;5053233;28;1024;-51
2021/12/05 13:39:30;;;;;;;;;;;;;;;10.44;62.67;94264.00;5053147;28;985;-51
2021/12/05 13:42:02;;;;;;;;;;;;;;;10.88;61.21;94241.00;5053048;28;1910;-51
2021/12/05 13:44:47;;;;;;;;;;;;;;;11.24;58.70;94254.41;5052989;28;1016;-51
2021/12/05 13:47:15;;;;;;;;;;;;;;;11.37;57.96;94247.59;5053377;28;1068;-51
2021/12/05 13:49:41;;;;;;;;;;;;;;;11.44;56.85;94254.66;5052827;28;1034;-51
2021/12/05 13:52:26;;;;;;;;;;;;;;;11.40;57.05;94248.03;5052981;28;1057;-51
2021/12/05 13:54:53;;;;;;;;;;;;;;;11.37;56.78;94253.75;5052877;28;982;-51
2021/12/05 13:57:20;;;;;;;;;;;;;;;11.42;56.53;94256.72;5052848;28;978;-51
2021/12/05 13:59:47;;;;;;;;;;;;;;;11.41;56.59;94248.88;5052698;28;1029;-51
2021/12/05 14:02:14;;;;;;;;;;;;;;;11.39;56.87;94248.22;5053122;28;1914;-51
2021/12/05 14:04:40;;;;;;;;;;;;;;;11.33;57.07;94245.28;5052746;28;977;-51
2021/12/05 14:07:07;;;;;;;;;;;;;;;11.21;57.66;94251.28;5052882;28;993;-51
2021/12/05 14:09:47;;;;;;;;;;;;;;;11.19;57.26;94250.66;5052541;28;982;-51
2021/12/05 14:12:15;;;;;;;;;;;;;;;11.08;57.80;94252.78;5052580;28;1858;-51
2021/12/05 14:14:46;;;;;;;;;;;;;;;11.04;58.49;94246.16;5052649;28;1044;-51
2021/12/05 14:17:12;;;;;;;;;;;;;;;10.90;58.93;94245.13;5052981;28;961;-51
2021/12/05 14:19:40;;;;;;;;;;;;;;;10.93;58.59;94252.81;5052097;28;1226;-51
2021/12/05 14:22:08;;;;;;;;;;;;;;;10.88;58.83;94257.88;5052935;28;1978;-51
2021/12/05 14:24:36;;;;;;;;;;;;;;;10.91;59.85;94267.38;5052173;28;1053;-51
2021/12/05 14:27:05;;;;;;;;;;;;;;;10.85;59.56;94262.75;5052803;28;1068;-51
2021/12/05 14:29:33;;;;;;;;;;;;;;;10.77;59.63;94262.84;5052482;28;966;-51
2021/12/05 14:32:03;;;;;;;;;;;;;;;10.72;59.61;94266.91;5052375;28;1264;-51
2021/12/05 14:34:30;;;;;;;;;;;;;;;10.74;59.78;94267.56;5052449;28;1038;-51
2021/12/05 14:36:58;;;;;;;;;;;;;;;10.71;59.37;94272.44;5052774;28;1085;-51
2021/12/05 14:39:30;;;;;;;;;;;;;;;10.78;58.74;94270.69;5052073;28;981;-51
2021/12/05 14:42:02;;;;;;;;;;;;;;;10.75;59.05;94265.69;5052480;28;1995;-51
2021/12/05 14:44:29;;;;;;;;;;;;;;;10.72;59.59;94264.22;5058118;28;1049;-51
2021/12/05 14:46:55;;;;;;;;;;;;;;;10.65;59.48;94265.16;5058282;28;1056;-51
2021/12/05 14:49:23;;;;;;;;;;;;;;;10.62;59.35;94260.97;5058898;28;1104;-51
2021/12/05 14:51:49;;;;;;;;;;;;;;;10.59;59.56;94266.72;5059134;28;1032;-51
2021/12/05 14:54:21;;;;;;;;;;;;;;;10.58;59.89;94262.38;5058872;28;1050;-51
2021/12/05 14:56:48;;;;;;;;;;;;;;;10.58;60.03;94265.03;5058806;28;1190;-51
2021/12/05 14:59:15;;;;;;;;;;;;;;;10.57;60.03;94258.06;5058845;28;986;-51
2021/12/05 15:01:46;;;;;;;;;;;;;;;10.50;60.38;94262.47;5059260;28;1913;-51
2021/12/05 15:04:13;;;;;;;;;;;;;;;10.45;60.59;94251.47;5058641;28;1048;-51
2021/12/05 15:06:43;;;;;;;;;;;;;;;10.37;61.15;94251.56;5058618;28;1119;-51
2021/12/05 15:09:24;;;;;;;;;;;;;;;10.30;62.11;94262.09;5058742;28;1860;-51
2021/12/05 15:11:54;;;;;;;;;;;;;;;10.14;62.49;94268.44;5058521;28;2356;-51
2021/12/05 15:14:21;;;;;;;;;;;;;;;10.03;62.69;94258.16;5058775;28;1085;-51
2021/12/05 15:17:07;;;;;;;;;;;;;;;9.99;62.77;94260.38;5058950;28;1919;-51
2021/12/05 15:19:36;;;;;;;;;;;;;;;9.99;63.33;94265.72;5058504;28;1261;-51
2021/12/05 15:22:03;;;;;;;;;;;;;;;9.94;63.88;94268.94;5058724;28;1910;-51
2021/12/05 15:24:30;;;;;;;;;;;;;;;9.84;64.49;94268.31;5059009;28;1025;-51
2021/12/05 15:26:57;;;;;;;;;;;;;;;9.82;63.92;94273.00;5058935;28;1045;-51
2021/12/05 15:29:24;;;;;;;;;;;;;;;9.79;63.50;94276.06;5059112;28;1020;-52
2021/12/05 15:31:51;;;;;;;;;;;;;;;9.82;63.65;94283.69;5058706;28;1105;-52
2021/12/05 15:34:18;;;;;;;;;;;;;;;9.82;64.13;94281.03;5058713;28;973;-52
2021/12/05 15:36:44;;;;;;;;;;;;;;;9.82;63.36;94280.19;5058792;28;978;-51
2021/12/05 15:39:19;;;;;;;;;;;;;;;9.78;65.00;94306.41;5059667;28;1322;-51
2021/12/05 15:41:46;;;;;;;;;;;;;;;9.70;65.75;94298.47;5059504;28;1906;-51
2021/12/05 15:44:27;;;;;;;;;;;;;;;9.67;65.49;94301.47;5059699;28;1369;-51
2021/12/05 15:47:04;;;;;;;;;;;;;;;9.62;65.43;94306.50;5059011;28;973;-51
2021/12/05 15:49:47;;;;;;;;;;;;;;;9.60;64.87;94311.19;5059056;28;1025;-51
2021/12/05 15:52:14;;;;;;;;;;;;;;;9.61;64.32;94320.88;5058174;28;1230;-51
2021/12/05 15:54:43;;;;;;;;;;;;;;;9.64;63.83;94315.19;5056539;28;1256;-51
2021/12/05 15:57:13;;;;;;;;;;;;;;;9.65;64.83;94316.84;5056213;28;1073;-51
2021/12/05 15:59:42;;;;;;;;;;;;;;;9.54;65.20;94318.91;5055859;28;1028;-51
2021/12/05 16:02:11;;;;;;;;;;;;;;;9.43;64.72;94323.78;5055001;28;1989;-51
2021/12/05 16:04:39;;;;;;;;;;;;;;;9.32;65.11;94322.34;5055331;28;1042;-51
2021/12/05 16:07:08;;;;;;;;;;;;;;;9.26;65.61;94323.03;5054955;28;1092;-51
2021/12/05 16:09:35;;;;;;;;;;;;;;;9.15;65.59;94326.91;5055449;28;1052;-51
2021/12/05 16:12:18;;;;;;;;;;;;;;;9.06;65.88;94319.94;5054872;28;1006;-51
2021/12/05 16:14:49;;;;;;;;;;;;;;;9.03;65.74;94325.63;5056089;28;1763;-51
2021/12/05 16:17:26;;;;;;;;;;;;;;;9.03;66.43;94323.78;5053840;28;1017;-51
2021/12/05 16:20:08;;;;;;;;;;;;;;;9.09;66.03;94339.09;5055064;28;1242;-51
2021/12/05 16:22:53;;;;;;;;;;;;;;;9.03;67.07;94333.59;5054870;28;1910;-53
2021/12/05 16:25:19;;;;;;;;;;;;;;;8.99;66.70;94333.97;5054621;28;1048;-52
2021/12/05 16:27:50;;;;;;;;;;;;;;;8.94;66.67;94346.16;5054771;28;1025;-52
2021/12/05 16:30:20;;;;;;;;;;;;;;;8.94;66.97;94343.47;5054536;28;1060;-52
2021/12/05 16:32:46;;;;;;;;;;;;;;;8.98;67.44;94337.63;5054152;28;1243;-52
2021/12/05 16:35:23;;;;;;;;;;;;;;;9.05;67.20;94351.13;5054375;28;1028;-52
2021/12/05 16:37:49;;;;;;;;;;;;;;;9.07;66.51;94348.25;5054533;28;1057;-52
2021/12/05 16:40:16;;;;;;;;;;;;;;;9.11;66.47;94357.59;5054156;28;1025;-52
2021/12/05 16:42:44;;;;;;;;;;;;;;;9.17;67.02;94355.06;5054162;28;1979;-52
2021/12/05 16:45:11;;;;;;;;;;;;;;;9.06;67.35;94360.78;5054296;28;1097;-52
2021/12/05 16:47:37;;;;;;;;;;;;;;;8.84;67.86;94361.47;5054216;28;1298;-52
2021/12/05 16:50:05;;;;;;;;;;;;;;;8.58;68.15;94367.88;5054390;28;1136;-52
2021/12/05 16:52:34;;;;;;;;;;;;;;;8.47;68.72;94371.69;5054150;28;989;-52
2021/12/05 16:55:09;;;;;;;;;;;;;;;8.33;69.45;94373.16;5054225;28;1202;-52
2021/12/05 16:57:51;;;;;;;;;;;;;;;8.32;69.36;94374.16;5053954;28;1092;-52
2021/12/05 17:00:19;;;;;;;;;;;;;;;8.36;69.58;94380.81;5054377;28;1098;-51
2021/12/05 17:02:52;;;;;;;;;;;;;;;8.41;69.00;94380.31;5054008;28;1910;-51
2021/12/05 17:05:21;;;;;;;;;;;;;;;8.42;68.82;94373.19;5053738;28;1037;-51
2021/12/05 17:07:47;;;;;;;;;;;;;;;8.51;69.00;94377.53;5052530;28;1045;-51
2021/12/05 17:10:19;;;;;;;;;;;;;;;8.49;68.55;94375.03;5054093;28;998;-51
2021/12/05 17:12:46;;;;;;;;;;;;;;;8.55;68.54;94374.34;5053850;28;980;-51
2021/12/05 17:15:17;;;;;;;;;;;;;;;8.66;68.39;94380.34;5054061;28;1092;-51
2021/12/05 17:17:45;;;;;;;;;;;;;;;8.60;68.27;94363.19;5053648;28;1053;-51
2021/12/05 17:20:17;;;;;;;;;;;;;;;8.52;68.41;94361.38;5046724;28;1199;-51
2021/12/05 17:22:50;;;;;;;;;;;;;;;8.68;68.53;94357.84;5053522;28;1985;-51
2021/12/05 17:25:45;;;;;;;;;;;;;;;8.47;69.29;94360.22;5053960;28;1061;-51
2021/12/05 17:28:16;;;;;;;;;;;;;;;8.16;70.29;94356.34;5044659;28;1335;-51
2021/12/05 17:30:50;;;;;;;;;;;;;;;8.07;70.61;94359.19;5053445;28;1053;-51
2021/12/05 17:33:36;;;;;;;;;;;;;;;7.84;70.79;94349.16;5052989;28;1854;-51
2021/12/05 17:36:14;;;;;;;;;;;;;;;7.84;71.36;94348.34;5053550;28;1033;-51
2021/12/05 17:38:41;;;;;;;;;;;;;;;7.84;71.89;94356.31;5053306;28;1054;-51
2021/12/05 17:41:07;;;;;;;;;;;;;;;7.86;71.80;94354.34;5053163;28;1993;-51
2021/12/05 17:43:33;;;;;;;;;;;;;;;7.91;71.56;94352.84;5053260;28;992;-51
2021/12/05 17:45:59;;;;;;;;;;;;;;;8.01;71.61;94350.84;5053296;28;1069;-51
2021/12/05 17:48:25;;;;;;;;;;;;;;;8.19;70.84;94352.50;5053034;28;1005;-51
2021/12/05 17:50:55;;;;;;;;;;;;;;;8.36;70.81;94361.34;5053439;28;1001;-52
2021/12/05 17:53:21;;;;;;;;;;;;;;;8.49;70.95;94358.22;5052867;28;1029;-52
2021/12/05 17:55:50;;;;;;;;;;;;;;;8.49;71.23;94363.53;5053090;28;1081;-52
2021/12/05 17:58:35;;;;;;;;;;;;;;;8.49;71.75;94363.53;5052889;28;997;-52
2021/12/05 18:03:49;;;;;;;;;;;;;;;8.78;70.47;94361.19;5052592;28;1050;-52
2021/12/05 18:06:16;;;;;;;;;;;;;;;8.84;70.45;94370.34;5052589;28;1041;-52
2021/12/05 18:08:42;;;;;;;;;;;;;;;8.83;70.46;94373.16;5052672;28;1034;-52
2021/12/05 18:11:12;;;;;;;;;;;;;;;8.66;70.64;94367.03;5052521;28;1026;-52
2021/12/05 18:13:40;;;;;;;;;;;;;;;8.54;70.81;94363.88;5053101;28;993;-52
2021/12/05 18:16:23;;;;;;;;;;;;;;;8.31;71.57;94364.53;5052442;28;1056;-52
2021/12/05 18:19:03;;;;;;;;;;;;;;;8.14;72.03;94361.00;5052064;28;1237;-51
2021/12/05 18:21:30;;;;;;;;;;;;;;;8.06;72.40;94358.31;5052561;28;1982;-51
2021/12/05 18:23:56;;;;;;;;;;;;;;;8.00;72.79;94349.16;5052509;28;1189;-51
2021/12/05 18:26:24;;;;;;;;;;;;;;;7.97;72.46;94354.84;5052504;28;1124;-51
2021/12/05 18:28:50;;;;;;;;;;;;;;;8.03;72.32;94364.00;5052481;28;1026;-51
2021/12/05 18:31:20;;;;;;;;;;;;;;;8.01;72.34;94363.34;5052237;28;982;-51
2021/12/05 18:33:48;;;;;;;;;;;;;;;7.94;72.84;94362.31;5052118;28;1232;-51
2021/12/05 18:36:14;;;;;;;;;;;;;;;7.95;72.71;94353.34;5052781;28;1054;-51
2021/12/05 18:38:41;;;;;;;;;;;;;;;7.96;72.92;94357.66;5052038;28;1081;-51
2021/12/05 18:41:10;;;;;;;;;;;;;;;7.87;73.89;94354.16;5052176;28;1907;-51
2021/12/05 18:43:38;;;;;;;;;;;;;;;7.68;73.33;94359.78;5052061;28;1238;-51
2021/12/05 18:46:06;;;;;;;;;;;;;;;7.48;73.94;94348.59;5051991;28;1206;-51
2021/12/05 18:48:32;;;;;;;;;;;;;;;7.41;74.43;94327.13;5052244;28;1041;-51
2021/12/05 18:50:59;;;;;;;;;;;;;;;7.30;74.45;94335.38;5052522;28;1060;-51
2021/12/05 18:53:25;;;;;;;;;;;;;;;7.31;74.51;94321.94;5052226;28;982;-51
2021/12/05 18:55:52;;;;;;;;;;;;;;;7.30;74.61;94314.13;5052461;28;986;-51
2021/12/05 18:58:22;;;;;;;;;;;;;;;7.52;74.29;94340.13;5051854;28;1014;-51
2021/12/05 19:06:26;;;;;;;;;;;;;;;8.00;71.90;94370.47;5052241;28;1069;-51
2021/12/05 19:14:03;;;;;;;;;;;;;;;7.78;73.10;94371.13;5052180;28;982;-51
2021/12/05 19:16:29;;;;;;;;;;;;;;;7.91;72.57;94360.81;5052240;28;1002;-51
2021/12/05 19:18:55;;;;;;;;;;;;;;;7.84;72.48;94373.13;5051628;28;1984;-51
2021/12/05 19:21:21;;;;;;;;;;;;;;;7.69;72.64;94361.44;5052017;28;1906;-51